Terminal Aerodrome Forecast
Issued by NWS

Home | Current Version | Previous Version | Text Only | Print | Product List | Glossary On
Versions: 1 2 3 4 5 6 7 8 9 10 11 12 13 14 15 16 17 18 19 20 21 22 23 24 25 26 27 28
103
FTUS43 KABR 011946 AAA
TAFMBG
TAF AMD
KMBG 011946Z 0120/0218 32014KT P6SM SCT020
     FM012100 33012KT P6SM SCT150
     FM012300 05007KT P6SM BKN100
     FM020100 11005KT P6SM BKN080
     FM020300 17005KT P6SM BKN035
     FM020500 23006KT P6SM BKN040
     FM021100 31010KT P6SM SCT045
     FM021700 34012KT P6SM BKN060=

USA.gov is the U.S. government's official web portal to all federal, state and local government web resources and services.